createdAt,value
2022-11-20T00:01:34.260Z,17.38
2022-11-20T00:04:02.037Z,17.17
2022-11-20T00:06:30.465Z,16.73
2022-11-20T00:09:01.243Z,16.77
2022-11-20T00:11:31.513Z,15.38
2022-11-20T00:14:02.139Z,14.75
2022-11-20T00:16:33.523Z,15.75
2022-11-20T00:19:01.342Z,14.90
2022-11-20T00:21:29.991Z,15.03
2022-11-20T00:23:58.846Z,16.58
2022-11-20T00:26:28.230Z,14.43
2022-11-20T00:28:59.193Z,15.10
2022-11-20T00:31:28.298Z,14.98
2022-11-20T00:33:56.528Z,16.00
2022-11-20T00:36:27.321Z,15.80
2022-11-20T00:38:58.014Z,15.57
2022-11-20T00:41:27.795Z,14.65
2022-11-20T00:43:57.218Z,14.88
2022-11-20T00:46:27.842Z,15.17
2022-11-20T00:48:55.609Z,15.07
2022-11-20T00:51:25.783Z,14.80
2022-11-20T00:53:55.524Z,14.90
2022-11-20T00:56:23.239Z,14.52
2022-11-20T00:58:51.009Z,15.00
2022-11-20T01:01:21.972Z,16.25
2022-11-20T01:03:53.003Z,16.83
2022-11-20T01:06:27.491Z,16.02
2022-11-20T01:08:58.266Z,15.15
2022-11-20T01:11:30.076Z,16.63
2022-11-20T01:13:59.846Z,15.85
2022-11-20T01:16:43.096Z,15.75
2022-11-20T01:19:18.797Z,16.60
2022-11-20T01:21:49.053Z,15.85
2022-11-20T01:24:19.182Z,17.17
2022-11-20T01:26:50.282Z,16.15
2022-11-20T01:29:25.289Z,15.68
2022-11-20T01:31:54.062Z,15.82
2022-11-20T01:34:23.514Z,16.88
2022-11-20T01:36:52.469Z,16.43
2022-11-20T01:39:26.677Z,16.20
2022-11-20T01:42:15.730Z,18.20
2022-11-20T01:44:55.790Z,16.88
2022-11-20T01:47:34.618Z,14.88
2022-11-20T01:50:27.238Z,15.83
2022-11-20T01:53:05.262Z,16.65
2022-11-20T01:55:39.903Z,16.40
2022-11-20T01:58:08.275Z,15.98
2022-11-20T02:00:36.789Z,17.65
2022-11-20T02:03:14.872Z,16.50
2022-11-20T02:06:26.030Z,16.90
2022-11-20T02:08:54.430Z,16.52
2022-11-20T02:11:23.187Z,16.05
2022-11-20T02:13:51.554Z,16.98
2022-11-20T02:16:27.221Z,16.83
2022-11-20T02:18:57.054Z,16.20
2022-11-20T02:21:50.325Z,16.65
2022-11-20T02:24:23.047Z,15.50
2022-11-20T02:26:59.445Z,17.08
2022-11-20T02:30:05.775Z,16.23
2022-11-20T02:32:36.830Z,16.73
2022-11-20T02:35:19.600Z,17.77
2022-11-20T02:37:55.672Z,18.52
2022-11-20T02:40:23.867Z,17.25
2022-11-20T02:42:56.029Z,18.00
2022-11-20T02:45:25.008Z,17.45
2022-11-20T02:47:53.262Z,18.88
2022-11-20T02:50:21.689Z,18.25
2022-11-20T02:52:50.981Z,17.88
2022-11-20T02:55:18.662Z,17.93
2022-11-20T02:57:46.317Z,18.05
2022-11-20T03:00:14.849Z,17.23
2022-11-20T03:02:42.614Z,18.48
2022-11-20T03:05:10.288Z,17.80
2022-11-20T03:07:37.984Z,17.37
2022-11-20T03:10:06.781Z,16.70
2022-11-20T03:12:34.478Z,16.48
2022-11-20T03:15:02.248Z,19.20
2022-11-20T03:17:30.642Z,18.05
2022-11-20T03:19:58.300Z,17.80
2022-11-20T03:22:26.015Z,16.65
2022-11-20T03:24:53.670Z,17.33
2022-11-20T03:27:21.389Z,17.45
2022-11-20T03:29:49.054Z,17.45
2022-11-20T03:32:16.746Z,16.10
2022-11-20T03:34:44.459Z,17.55
2022-11-20T03:37:12.118Z,16.05
2022-11-20T03:39:39.826Z,17.15
2022-11-20T03:42:27.493Z,16.50
2022-11-20T03:44:55.233Z,15.70
2022-11-20T03:47:22.929Z,16.75
2022-11-20T03:49:50.718Z,17.42
2022-11-20T03:52:18.426Z,16.33
2022-11-20T03:54:46.075Z,16.73
2022-11-20T03:57:13.787Z,15.83
2022-11-20T03:59:41.494Z,15.75
2022-11-20T04:02:09.272Z,17.30
2022-11-20T04:04:37.031Z,15.65
2022-11-20T04:07:05.823Z,16.90
2022-11-20T04:09:33.530Z,17.27
2022-11-20T04:12:01.255Z,17.05
2022-11-20T04:14:28.909Z,17.45
2022-11-20T04:16:56.575Z,15.63
2022-11-20T04:19:24.453Z,16.88
2022-11-20T04:21:52.185Z,16.80
2022-11-20T04:24:19.834Z,15.82
2022-11-20T04:26:47.497Z,17.17
2022-11-20T04:29:15.210Z,15.98
2022-11-20T04:31:42.908Z,15.95
2022-11-20T04:34:13.770Z,15.37
2022-11-20T04:36:41.715Z,16.88
2022-11-20T04:39:15.130Z,16.00
2022-11-20T04:41:43.014Z,16.77
2022-11-20T04:44:11.230Z,16.58
2022-11-20T04:46:43.760Z,15.53
2022-11-20T04:49:12.938Z,16.13
2022-11-20T04:51:40.713Z,15.13
2022-11-20T04:54:09.023Z,15.25
2022-11-20T04:56:36.680Z,15.43
2022-11-20T04:59:04.669Z,15.20
2022-11-20T05:01:33.451Z,14.85
2022-11-20T05:04:01.238Z,17.83
2022-11-20T05:06:28.894Z,15.57
2022-11-20T05:08:56.547Z,16.05
2022-11-20T05:11:24.406Z,15.80
2022-11-20T05:13:53.204Z,14.88
2022-11-20T05:16:25.999Z,14.95
2022-11-20T05:18:55.521Z,14.18
2022-11-20T05:21:23.761Z,15.20
2022-11-20T05:23:51.471Z,14.77
2022-11-20T05:26:23.563Z,16.35
2022-11-20T05:28:52.279Z,15.63
2022-11-20T05:31:27.179Z,14.82
2022-11-20T05:33:57.717Z,14.95
2022-11-20T05:36:25.824Z,15.60
2022-11-20T05:38:58.044Z,15.63
2022-11-20T05:41:29.359Z,14.85
2022-11-20T05:43:58.738Z,14.52
2022-11-20T05:46:29.112Z,14.95
2022-11-20T05:48:58.457Z,14.40
2022-11-20T05:51:28.587Z,14.20
2022-11-20T05:53:59.609Z,13.75
2022-11-20T05:56:27.309Z,15.90
2022-11-20T05:58:55.081Z,14.73
2022-11-20T06:01:26.591Z,14.83
2022-11-20T06:03:55.347Z,14.82
2022-11-20T06:06:23.490Z,14.85
2022-11-20T06:08:51.162Z,13.35
2022-11-20T06:11:19.231Z,14.50
2022-11-20T06:13:47.736Z,14.57
2022-11-20T06:16:19.472Z,16.38
2022-11-20T06:18:48.068Z,14.65
2022-11-20T06:21:19.755Z,14.98
2022-11-20T06:23:48.470Z,14.93
2022-11-20T06:26:28.619Z,14.43
2022-11-20T06:28:59.243Z,15.10
2022-11-20T06:31:27.455Z,13.07
2022-11-20T06:33:55.779Z,14.55
2022-11-20T06:36:24.192Z,14.52
2022-11-20T06:38:51.934Z,15.30
2022-11-20T06:41:22.291Z,14.93
2022-11-20T06:43:50.501Z,13.13
2022-11-20T06:46:20.119Z,14.02
2022-11-20T06:48:49.568Z,13.00
2022-11-20T06:51:18.228Z,13.83
2022-11-20T06:53:46.146Z,14.07
2022-11-20T06:56:13.885Z,15.10
2022-11-20T06:58:41.593Z,14.52
2022-11-20T07:01:13.440Z,14.05
2022-11-20T07:03:42.545Z,14.97
2022-11-20T07:06:10.646Z,14.32
2022-11-20T07:08:39.654Z,15.00
2022-11-20T07:11:08.904Z,15.82
2022-11-20T07:13:36.621Z,14.50
2022-11-20T07:16:07.967Z,15.23
2022-11-20T07:18:36.507Z,15.00
2022-11-20T07:21:06.522Z,15.07
2022-11-20T07:23:34.368Z,14.88
2022-11-20T07:26:10.516Z,15.43
2022-11-20T07:28:38.789Z,15.10
2022-11-20T07:31:08.358Z,15.45
2022-11-20T07:33:36.102Z,15.45
2022-11-20T07:36:04.216Z,16.05
2022-11-20T07:38:32.094Z,17.25
2022-11-20T07:41:02.367Z,17.27
2022-11-20T07:43:30.483Z,17.17
2022-11-20T07:45:59.999Z,16.88
2022-11-20T07:48:27.930Z,17.95
2022-11-20T07:50:57.391Z,18.73
2022-11-20T07:53:25.426Z,18.23
2022-11-20T07:55:53.442Z,16.77
2022-11-20T07:58:22.501Z,17.83
2022-11-20T08:00:50.539Z,16.58
2022-11-20T08:03:24.251Z,17.42
2022-11-20T08:05:53.523Z,16.97
2022-11-20T08:08:23.788Z,18.73
2022-11-20T08:10:51.430Z,18.15
2022-11-20T08:13:37.462Z,19.55
2022-11-20T08:16:05.532Z,18.25
2022-11-20T08:18:33.396Z,17.33
2022-11-20T08:21:05.642Z,18.70
2022-11-20T08:23:33.388Z,17.67
2022-11-20T08:26:01.068Z,16.42
2022-11-20T08:28:28.822Z,17.38
2022-11-20T08:31:03.822Z,16.53
2022-11-20T08:33:33.582Z,17.13
2022-11-20T08:36:03.492Z,17.70
2022-11-20T08:38:31.946Z,17.40
2022-11-20T08:41:19.987Z,18.15
2022-11-20T08:43:47.641Z,18.63
2022-11-20T08:46:15.617Z,18.67
2022-11-20T08:48:43.645Z,18.88
2022-11-20T08:51:12.640Z,19.17
2022-11-20T08:53:41.530Z,18.95
2022-11-20T08:56:10.694Z,18.37
2022-11-20T08:59:09.670Z,19.67
2022-11-20T09:01:28.394Z,20.25
2022-11-20T09:04:00.570Z,18.67
2022-11-20T09:06:28.270Z,19.50
2022-11-20T09:08:56.075Z,19.73
2022-11-20T09:11:24.101Z,19.50
2022-11-20T09:13:52.097Z,20.27
2022-11-20T09:16:19.854Z,19.33
2022-11-20T09:18:53.957Z,20.00
2022-11-20T09:21:29.840Z,19.13
2022-11-20T09:23:57.566Z,19.60
2022-11-20T09:26:25.224Z,19.20
2022-11-20T09:28:56.797Z,18.92
2022-11-20T09:31:27.118Z,19.83
2022-11-20T09:33:54.840Z,21.07
2022-11-20T09:36:22.664Z,20.75
2022-11-20T09:38:50.476Z,20.45
2022-11-20T09:41:56.164Z,20.23
2022-11-20T09:44:26.769Z,18.80
2022-11-20T09:47:05.904Z,19.27
2022-11-20T09:49:47.576Z,19.02
2022-11-20T09:52:38.187Z,19.52
2022-11-20T09:55:12.444Z,19.02
2022-11-20T09:57:45.483Z,20.85
2022-11-20T10:00:16.055Z,18.47
2022-11-20T10:03:01.299Z,19.70
2022-11-20T10:05:45.984Z,19.15
2022-11-20T10:08:26.764Z,18.25
2022-11-20T10:11:02.610Z,20.25
2022-11-20T10:14:17.978Z,20.73
2022-11-20T10:17:13.787Z,19.15
2022-11-20T10:20:25.580Z,20.13
2022-11-20T10:23:41.613Z,19.77
2022-11-20T10:26:22.274Z,21.05
2022-11-20T10:29:08.669Z,19.40
2022-11-20T10:31:50.236Z,20.55
2022-11-20T10:35:09.411Z,20.45
2022-11-20T10:37:43.991Z,20.95
2022-11-20T10:40:38.272Z,20.80
2022-11-20T10:43:33.326Z,19.30
2022-11-20T10:46:09.017Z,19.67
2022-11-20T10:48:38.511Z,19.80
2022-11-20T10:51:57.950Z,21.30
2022-11-20T10:54:45.401Z,21.15
2022-11-20T10:57:54.333Z,20.67
2022-11-20T11:00:22.365Z,20.52
2022-11-20T11:03:03.038Z,22.42
2022-11-20T11:05:51.482Z,22.60
2022-11-20T11:08:20.754Z,23.08
2022-11-20T11:10:58.750Z,22.90
2022-11-20T11:13:29.596Z,22.23
2022-11-20T11:15:58.213Z,24.23
2022-11-20T11:18:33.453Z,22.70
2022-11-20T11:21:04.285Z,22.65
2022-11-20T11:23:42.045Z,21.37
2022-11-20T11:26:25.854Z,23.85
2022-11-20T11:29:05.861Z,23.90
2022-11-20T11:31:35.913Z,26.27
2022-11-20T11:34:18.133Z,25.77
2022-11-20T11:37:00.441Z,25.13
2022-11-20T11:39:31.986Z,24.95
2022-11-20T11:42:02.154Z,24.63
2022-11-20T11:44:51.872Z,25.98
2022-11-20T11:47:37.882Z,25.88
2022-11-20T11:50:16.597Z,26.30
2022-11-20T11:53:22.530Z,26.63
2022-11-20T11:56:11.471Z,26.27
2022-11-20T11:58:47.831Z,26.98
2022-11-20T12:01:45.786Z,26.92
2022-11-20T12:04:45.039Z,26.53
2022-11-20T12:07:45.647Z,26.92
2022-11-20T12:10:21.742Z,27.38
2022-11-20T12:13:45.595Z,28.27
2022-11-20T12:16:15.986Z,27.98
2022-11-20T12:18:44.285Z,29.70
2022-11-20T12:21:27.741Z,29.25
2022-11-20T12:24:43.228Z,30.20
2022-11-20T12:27:39.202Z,27.98
2022-11-20T12:30:16.839Z,28.38
2022-11-20T12:32:57.159Z,28.57
2022-11-20T12:35:52.721Z,29.38
2022-11-20T12:39:14.397Z,28.67
2022-11-20T12:42:26.002Z,28.70
2022-11-20T12:45:43.731Z,31.05
2022-11-20T12:48:52.067Z,28.43
2022-11-20T12:51:55.974Z,30.23
2022-11-20T12:54:32.230Z,28.20
2022-11-20T12:57:22.876Z,27.23
2022-11-20T13:00:18.139Z,28.75
2022-11-20T13:03:22.643Z,27.50
2022-11-20T13:06:01.355Z,27.35
2022-11-20T13:08:49.313Z,31.17
2022-11-20T13:11:33.495Z,29.25
2022-11-20T13:14:36.745Z,30.90
2022-11-20T13:17:15.850Z,31.37
2022-11-20T13:19:56.314Z,30.15
2022-11-20T13:22:48.388Z,28.63
2022-11-20T13:25:39.548Z,30.20
2022-11-20T13:28:30.844Z,30.27
2022-11-20T13:31:00.219Z,30.23
2022-11-20T13:33:38.274Z,28.67
2022-11-20T13:36:21.524Z,30.95
2022-11-20T13:38:53.210Z,29.92
2022-11-20T13:41:36.441Z,31.33
2022-11-20T13:44:40.244Z,32.77
2022-11-20T13:47:28.334Z,29.35
2022-11-20T13:50:00.248Z,28.85
2022-11-20T13:53:17.527Z,28.00
2022-11-20T13:56:11.330Z,29.70
2022-11-20T13:59:05.455Z,29.80
2022-11-20T14:01:35.543Z,32.35
2022-11-20T14:04:21.538Z,28.85
2022-11-20T14:06:50.607Z,29.80
2022-11-20T14:09:31.034Z,29.40
2022-11-20T14:11:59.508Z,30.90
2022-11-20T14:14:33.263Z,30.00
2022-11-20T14:17:35.771Z,30.08
2022-11-20T14:20:12.220Z,29.58
2022-11-20T14:22:39.916Z,30.38
2022-11-20T14:25:19.510Z,29.50
2022-11-20T14:27:59.960Z,30.10
2022-11-20T14:30:36.787Z,34.10
2022-11-20T14:33:06.161Z,32.80
2022-11-20T14:35:51.687Z,40.80
2022-11-20T14:38:27.104Z,39.60
2022-11-20T14:40:54.851Z,42.38
2022-11-20T14:43:29.749Z,34.42
2022-11-20T14:46:07.929Z,31.83
2022-11-20T14:48:44.518Z,35.67
2022-11-20T14:51:25.515Z,33.60
2022-11-20T14:53:53.216Z,36.58
2022-11-20T14:56:26.754Z,35.63
2022-11-20T14:58:58.964Z,32.50
2022-11-20T15:01:32.762Z,35.35
2022-11-20T15:04:08.750Z,34.13
2022-11-20T15:06:37.517Z,35.83
2022-11-20T15:09:13.675Z,36.00
2022-11-20T15:11:57.890Z,37.00
2022-11-20T15:14:27.583Z,37.00
2022-11-20T15:16:55.890Z,38.33
2022-11-20T15:19:28.211Z,36.65
2022-11-20T15:21:56.000Z,37.08
2022-11-20T15:24:23.805Z,35.13
2022-11-20T15:26:51.622Z,37.95
2022-11-20T15:29:20.141Z,36.97
2022-11-20T15:31:47.975Z,36.17
2022-11-20T15:34:17.060Z,37.50
2022-11-20T15:36:45.238Z,39.08
2022-11-20T15:39:13.109Z,38.47
2022-11-20T15:41:40.958Z,36.03
2022-11-20T15:44:08.618Z,38.28
2022-11-20T15:46:43.163Z,39.35
2022-11-20T15:49:15.649Z,40.30
2022-11-20T15:51:47.941Z,40.53
2022-11-20T15:54:21.125Z,46.07
2022-11-20T15:56:53.007Z,39.45
2022-11-20T15:59:21.021Z,37.45
2022-11-20T16:01:48.714Z,40.83
2022-11-20T16:04:18.074Z,39.75
2022-11-20T16:06:45.795Z,38.63
2022-11-20T16:09:13.475Z,43.05
2022-11-20T16:11:41.123Z,39.88
2022-11-20T16:14:30.922Z,39.42
2022-11-20T16:16:58.574Z,40.03
2022-11-20T16:19:35.963Z,40.83
2022-11-20T16:22:04.056Z,43.08
2022-11-20T16:24:32.290Z,41.03
2022-11-20T16:27:00.152Z,37.72
2022-11-20T16:29:27.876Z,39.20
2022-11-20T16:31:55.647Z,40.33
2022-11-20T16:34:23.304Z,40.85
2022-11-20T16:36:50.945Z,37.03
2022-11-20T16:39:23.290Z,34.75
2022-11-20T16:41:51.692Z,36.33
2022-11-20T16:44:19.358Z,39.37
2022-11-20T16:46:47.182Z,38.10
2022-11-20T16:49:15.546Z,35.78
2022-11-20T16:51:43.511Z,40.28
2022-11-20T16:54:21.006Z,39.75
2022-11-20T16:56:50.938Z,35.60
2022-11-20T16:59:18.692Z,33.97
2022-11-20T17:01:46.498Z,36.45
2022-11-20T17:04:14.565Z,37.00
2022-11-20T17:06:44.477Z,35.80
2022-11-20T17:09:13.714Z,34.67
2022-11-20T17:11:41.635Z,34.75
2022-11-20T17:14:13.479Z,34.17
2022-11-20T17:16:41.237Z,35.67
2022-11-20T17:19:11.496Z,40.80
2022-11-20T17:21:39.723Z,37.97
2022-11-20T17:24:11.115Z,36.55
2022-11-20T17:26:41.849Z,37.85
2022-11-20T17:29:15.063Z,37.13
2022-11-20T17:31:43.524Z,38.10
2022-11-20T17:34:14.486Z,39.40
2022-11-20T17:36:45.639Z,35.08
2022-11-20T17:39:16.413Z,38.90
2022-11-20T17:41:44.910Z,40.22
2022-11-20T17:44:13.384Z,44.15
2022-11-20T17:46:41.523Z,33.93
2022-11-20T17:49:09.179Z,35.08
2022-11-20T17:51:37.000Z,33.28
2022-11-20T17:54:09.368Z,32.92
2022-11-20T17:56:55.634Z,34.35
2022-11-20T17:59:23.322Z,34.10
2022-11-20T18:01:51.117Z,33.35
2022-11-20T18:04:18.857Z,32.80
2022-11-20T18:06:46.798Z,33.10
2022-11-20T18:09:14.502Z,32.28
2022-11-20T18:11:43.652Z,33.03
2022-11-20T18:14:26.326Z,32.20
2022-11-20T18:17:01.372Z,29.52
2022-11-20T18:19:34.222Z,30.85
2022-11-20T18:22:05.120Z,32.47
2022-11-20T18:24:33.024Z,35.30
2022-11-20T18:27:00.743Z,31.25
2022-11-20T18:29:28.865Z,37.50
2022-11-20T18:31:56.862Z,33.65
2022-11-20T18:34:25.201Z,36.53
2022-11-20T18:36:53.621Z,35.27
2022-11-20T18:39:21.866Z,29.65
2022-11-20T18:42:08.535Z,33.63
2022-11-20T18:44:51.385Z,41.92
2022-11-20T18:47:25.922Z,40.88
2022-11-20T18:49:57.070Z,43.53
2022-11-20T18:52:28.970Z,46.55
2022-11-20T18:54:57.968Z,49.40
2022-11-20T18:57:27.809Z,54.33
2022-11-20T19:00:03.278Z,47.22
2022-11-20T19:02:40.617Z,54.33
2022-11-20T19:05:13.926Z,72.15
2022-11-20T19:07:42.445Z,51.05
2022-11-20T19:10:10.454Z,40.33
2022-11-20T19:12:38.391Z,39.80
2022-11-20T19:15:06.727Z,35.73
2022-11-20T19:17:34.948Z,35.50
2022-11-20T19:20:02.641Z,33.45
2022-11-20T19:22:30.355Z,38.17
2022-11-20T19:24:58.013Z,37.22
2022-11-20T19:27:25.756Z,34.73
2022-11-20T19:29:54.829Z,35.85
2022-11-20T19:32:22.541Z,33.47
2022-11-20T19:34:50.200Z,33.63
2022-11-20T19:37:17.891Z,32.95
2022-11-20T19:39:45.589Z,32.40
2022-11-20T19:42:13.515Z,35.15
2022-11-20T19:44:41.171Z,34.42
2022-11-20T19:47:14.024Z,32.97
2022-11-20T19:49:42.285Z,32.15
2022-11-20T19:52:10.076Z,37.43
2022-11-20T19:54:37.918Z,32.30
2022-11-20T19:57:05.585Z,30.42
2022-11-20T19:59:33.237Z,31.48
2022-11-20T20:02:03.255Z,32.90
2022-11-20T20:04:31.101Z,33.80
2022-11-20T20:06:58.931Z,30.45
2022-11-20T20:09:27.526Z,32.35
2022-11-20T20:11:55.252Z,33.50
2022-11-20T20:14:22.976Z,30.92
2022-11-20T20:16:50.685Z,31.73
2022-11-20T20:19:18.615Z,31.73
2022-11-20T20:21:47.739Z,32.70
2022-11-20T20:24:15.505Z,34.30
2022-11-20T20:26:43.334Z,35.80
2022-11-20T20:29:11.046Z,35.97
2022-11-20T20:31:39.652Z,33.15
2022-11-20T20:34:07.377Z,32.22
2022-11-20T20:36:35.108Z,31.77
2022-11-20T20:39:03.060Z,31.85
2022-11-20T20:41:31.511Z,30.97
2022-11-20T20:44:31.690Z,34.05
2022-11-20T20:46:59.423Z,34.92
2022-11-20T20:49:27.256Z,31.20
2022-11-20T20:51:54.967Z,32.83
2022-11-20T20:54:22.668Z,31.37
2022-11-20T20:56:52.083Z,34.80
2022-11-20T20:59:19.805Z,42.03
2022-11-20T21:01:47.598Z,37.13
2022-11-20T21:04:15.318Z,36.17
2022-11-20T21:06:42.982Z,34.60
2022-11-20T21:09:10.679Z,34.38
2022-11-20T21:11:39.606Z,36.00
2022-11-20T21:14:07.635Z,37.25
2022-11-20T21:16:40.993Z,36.08
2022-11-20T21:19:08.929Z,38.87
2022-11-20T21:21:55.385Z,34.58
2022-11-20T21:24:23.418Z,32.63
2022-11-20T21:26:52.206Z,34.83
2022-11-20T21:29:21.372Z,34.22
2022-11-20T21:31:49.637Z,33.63
2022-11-20T21:34:18.357Z,33.60
2022-11-20T21:36:46.553Z,34.33
2022-11-20T21:39:15.150Z,37.55
2022-11-20T21:41:43.186Z,34.60
2022-11-20T21:44:31.667Z,37.37
2022-11-20T21:47:02.428Z,35.03
2022-11-20T21:49:30.072Z,34.30
2022-11-20T21:51:57.784Z,36.70
2022-11-20T21:54:25.724Z,34.22
2022-11-20T21:56:53.653Z,35.40
2022-11-20T21:59:22.054Z,37.25
2022-11-20T22:01:49.993Z,38.22
2022-11-20T22:04:17.682Z,35.63
2022-11-20T22:06:45.329Z,37.10
2022-11-20T22:09:13.913Z,34.63
2022-11-20T22:11:41.577Z,35.92
2022-11-20T22:14:23.763Z,39.35
2022-11-20T22:16:53.867Z,35.90
2022-11-20T22:19:23.129Z,44.80
2022-11-20T22:21:51.084Z,43.43
2022-11-20T22:24:21.448Z,36.38
2022-11-20T22:26:49.614Z,40.90
2022-11-20T22:29:23.596Z,38.00
2022-11-20T22:31:54.583Z,36.33
2022-11-20T22:34:22.733Z,36.23
2022-11-20T22:36:50.881Z,39.53
2022-11-20T22:39:18.636Z,36.47
2022-11-20T22:41:46.366Z,37.80
2022-11-20T22:44:15.398Z,39.33
2022-11-20T22:46:43.198Z,36.10
2022-11-20T22:49:10.962Z,35.35
2022-11-20T22:51:41.193Z,35.55
2022-11-20T22:54:12.054Z,35.65
2022-11-20T22:56:40.516Z,34.55
2022-11-20T22:59:08.330Z,36.53
2022-11-20T23:01:37.689Z,42.38
2022-11-20T23:04:09.787Z,37.38
2022-11-20T23:06:37.912Z,37.92
2022-11-20T23:09:07.453Z,36.55
2022-11-20T23:11:35.764Z,35.03
2022-11-20T23:14:07.355Z,38.58
2022-11-20T23:16:35.688Z,38.72
2022-11-20T23:19:07.219Z,45.10
2022-11-20T23:21:38.658Z,41.85
2022-11-20T23:24:07.083Z,43.30
2022-11-20T23:26:38.974Z,38.13
2022-11-20T23:29:07.338Z,43.67
2022-11-20T23:31:36.257Z,38.72
2022-11-20T23:34:04.286Z,43.25
2022-11-20T23:36:32.265Z,36.73
2022-11-20T23:39:00.108Z,39.50
2022-11-20T23:41:27.807Z,35.63
2022-11-20T23:43:55.506Z,35.80
2022-11-20T23:46:23.179Z,34.80
2022-11-20T23:48:50.832Z,38.17
2022-11-20T23:51:18.514Z,33.97
2022-11-20T23:53:46.236Z,34.53
2022-11-20T23:56:16.999Z,33.75
2022-11-20T23:58:44.809Z,33.03
